createdAt,value
2023-01-20T00:01:43.178Z,99.90
2023-01-20T00:04:10.161Z,99.90
2023-01-20T00:06:37.246Z,99.90
2023-01-20T00:14:02.579Z,99.90
2023-01-20T00:16:31.954Z,99.90
2023-01-20T00:18:59.191Z,99.90
2023-01-20T00:21:26.391Z,99.90
2023-01-20T00:23:53.349Z,99.90
2023-01-20T00:28:53.325Z,99.90
2023-01-20T00:31:29.796Z,99.90
2023-01-20T00:33:59.825Z,99.90
2023-01-20T00:36:31.134Z,99.90
2023-01-20T00:38:58.813Z,99.90
2023-01-20T00:48:50.063Z,99.90
2023-01-20T00:51:17.001Z,99.90
2023-01-20T00:53:44.017Z,99.90
2023-01-20T00:56:10.962Z,99.90
2023-01-20T00:58:37.906Z,99.90
2023-01-20T01:01:05.243Z,99.90
2023-01-20T01:03:32.246Z,99.90
2023-01-20T01:06:11.820Z,99.90
2023-01-20T01:08:39.186Z,99.90
2023-01-20T01:11:07.073Z,99.90
2023-01-20T01:13:35.002Z,99.90
2023-01-20T01:16:02.295Z,99.90
2023-01-20T01:18:29.358Z,99.90
2023-01-20T01:20:58.046Z,99.90
2023-01-20T01:23:25.023Z,99.90
2023-01-20T01:26:07.135Z,99.90
2023-01-20T01:28:34.379Z,99.90
2023-01-20T01:31:06.898Z,99.90
2023-01-20T01:33:34.835Z,99.90
2023-01-20T01:36:03.627Z,99.90
2023-01-20T01:38:30.893Z,99.90
2023-01-20T01:40:57.885Z,99.90
2023-01-20T01:43:35.820Z,99.90
2023-01-20T01:46:04.399Z,99.90
2023-01-20T01:48:38.611Z,99.90
2023-01-20T01:51:15.747Z,99.90
2023-01-20T01:54:15.079Z,99.90
2023-01-20T01:56:43.930Z,99.90
2023-01-20T01:59:13.286Z,99.90
2023-01-20T02:01:45.369Z,99.90
2023-01-20T02:04:17.044Z,99.90
2023-01-20T02:06:57.600Z,99.90
2023-01-20T02:09:26.554Z,99.90
2023-01-20T02:11:58.608Z,99.90
2023-01-20T02:14:41.397Z,99.90
2023-01-20T02:18:06.693Z,99.90
2023-01-20T02:21:08.777Z,99.90
2023-01-20T02:23:50.513Z,99.90
2023-01-20T02:26:56.527Z,99.90
2023-01-20T02:30:06.690Z,99.90
2023-01-20T02:33:20.539Z,99.90
2023-01-20T02:35:53.945Z,99.90
2023-01-20T02:38:32.155Z,99.90
2023-01-20T02:41:17.370Z,99.90
2023-01-20T02:44:14.740Z,99.90
2023-01-20T02:46:57.250Z,99.90
2023-01-20T02:49:59.252Z,99.90
2023-01-20T02:52:39.517Z,99.90
2023-01-20T02:55:16.901Z,99.90
2023-01-20T02:57:54.189Z,99.90
2023-01-20T03:00:27.810Z,99.90
2023-01-20T03:02:58.000Z,99.90
2023-01-20T03:05:31.158Z,99.90
2023-01-20T03:08:01.564Z,99.90
2023-01-20T03:10:32.956Z,99.90
2023-01-20T03:13:12.342Z,99.90
2023-01-20T03:16:01.489Z,99.90
2023-01-20T03:21:03.289Z,99.90
2023-01-20T03:23:35.983Z,99.90
2023-01-20T03:26:09.482Z,99.90
2023-01-20T03:28:36.458Z,99.90
2023-01-20T03:31:31.794Z,99.90
2023-01-20T03:34:02.146Z,99.90
2023-01-20T03:36:31.479Z,99.90
2023-01-20T03:38:59.492Z,99.90
2023-01-20T03:41:49.623Z,99.90
2023-01-20T03:44:32.531Z,99.90
2023-01-20T03:47:52.662Z,99.90
2023-01-20T03:50:47.730Z,99.90
2023-01-20T03:53:36.831Z,99.90
2023-01-20T03:56:17.020Z,99.90
2023-01-20T03:58:49.393Z,99.90
2023-01-20T04:01:20.065Z,99.90
2023-01-20T04:03:51.095Z,99.90
2023-01-20T04:06:21.498Z,99.90
2023-01-20T04:08:56.773Z,99.90
2023-01-20T04:11:24.715Z,99.90
2023-01-20T04:13:51.742Z,99.90
2023-01-20T04:16:20.223Z,99.90
2023-01-20T04:18:50.633Z,99.90
2023-01-20T04:26:37.067Z,99.90
2023-01-20T04:29:11.160Z,99.90
2023-01-20T04:31:39.806Z,99.90
2023-01-20T04:34:12.341Z,99.90
2023-01-20T04:36:39.291Z,99.90
2023-01-20T04:39:06.294Z,99.90
2023-01-20T04:41:33.210Z,99.90
2023-01-20T04:44:00.220Z,99.90
2023-01-20T04:46:27.242Z,99.90
2023-01-20T04:48:54.509Z,99.90
2023-01-20T04:51:21.700Z,99.90
2023-01-20T04:53:48.636Z,99.90
2023-01-20T04:56:16.140Z,99.90
2023-01-20T04:58:43.689Z,99.90
2023-01-20T05:01:10.864Z,99.90
2023-01-20T05:03:38.388Z,99.90
2023-01-20T05:06:09.046Z,99.90
2023-01-20T05:08:36.028Z,99.90
2023-01-20T05:11:03.625Z,99.90
2023-01-20T05:13:30.568Z,99.90
2023-01-20T05:15:58.079Z,99.90
2023-01-20T05:18:25.038Z,99.90
2023-01-20T05:20:52.002Z,99.90
2023-01-20T05:23:18.935Z,99.90
2023-01-20T05:25:53.120Z,99.90
2023-01-20T05:28:20.326Z,99.90
2023-01-20T05:30:48.478Z,99.90
2023-01-20T05:33:15.593Z,99.90
2023-01-20T05:35:42.531Z,99.90
2023-01-20T05:38:09.620Z,99.90
2023-01-20T05:40:36.636Z,99.90
2023-01-20T05:43:03.997Z,99.90
2023-01-20T05:45:32.447Z,99.90
2023-01-20T05:48:00.615Z,99.90
2023-01-20T05:50:28.882Z,99.90
2023-01-20T05:52:55.849Z,99.90
2023-01-20T05:55:22.831Z,99.90
2023-01-20T05:57:49.824Z,99.90
2023-01-20T06:00:18.838Z,99.90
2023-01-20T06:02:46.228Z,99.90
2023-01-20T06:05:13.584Z,99.90
2023-01-20T06:07:40.834Z,99.90
2023-01-20T06:10:08.838Z,99.90
2023-01-20T06:12:35.881Z,99.90
2023-01-20T06:15:06.957Z,99.90
2023-01-20T06:17:34.084Z,99.90
2023-01-20T06:20:01.254Z,99.90
2023-01-20T06:22:28.236Z,99.90
2023-01-20T06:24:55.176Z,99.90
2023-01-20T06:27:22.197Z,99.90
2023-01-20T06:29:50.829Z,99.90
2023-01-20T06:32:17.836Z,99.90
2023-01-20T06:34:44.756Z,99.90
2023-01-20T06:37:11.793Z,99.90
2023-01-20T06:39:40.244Z,99.90
2023-01-20T06:42:07.437Z,99.90
2023-01-20T06:44:34.977Z,99.90
2023-01-20T06:47:02.589Z,99.90
2023-01-20T06:49:30.183Z,99.90
2023-01-20T06:51:57.190Z,99.90
2023-01-20T06:54:24.272Z,99.90
2023-01-20T06:56:51.316Z,99.90
2023-01-20T06:59:18.309Z,99.90
2023-01-20T07:01:45.350Z,99.90
2023-01-20T07:04:15.492Z,99.90
2023-01-20T07:06:42.853Z,99.90
2023-01-20T07:09:13.819Z,99.90
2023-01-20T07:11:41.048Z,99.90
2023-01-20T07:14:08.668Z,99.90
2023-01-20T07:16:36.205Z,99.90
2023-01-20T07:19:03.775Z,99.90
2023-01-20T07:21:30.796Z,99.90
2023-01-20T07:24:01.683Z,99.90
2023-01-20T07:26:29.011Z,99.90
2023-01-20T07:28:58.081Z,99.90
2023-01-20T07:31:28.216Z,99.90
2023-01-20T07:38:53.000Z,99.90
2023-01-20T07:41:21.559Z,99.90
2023-01-20T07:43:51.452Z,99.90
2023-01-20T07:46:19.723Z,99.90
2023-01-20T07:48:46.930Z,99.90
2023-01-20T07:51:16.133Z,99.90
2023-01-20T07:53:49.062Z,99.90
2023-01-20T07:56:22.097Z,99.90
2023-01-20T07:58:50.657Z,99.90
2023-01-20T08:04:00.438Z,99.90
2023-01-20T08:06:28.333Z,99.90
2023-01-20T08:08:58.454Z,99.90
2023-01-20T08:11:25.774Z,99.90
2023-01-20T08:13:53.158Z,99.90
2023-01-20T08:16:20.286Z,99.90
2023-01-20T08:18:47.862Z,99.90
2023-01-20T08:21:31.073Z,94.10
2023-01-20T08:24:00.819Z,99.90
2023-01-20T08:26:29.768Z,91.20
2023-01-20T08:29:06.430Z,93.10
2023-01-20T08:31:33.691Z,83.10
2023-01-20T08:34:01.446Z,85.70
2023-01-20T08:36:32.776Z,58.10
2023-01-20T08:39:03.173Z,93.10
2023-01-20T08:41:35.559Z,93.60
2023-01-20T08:44:06.040Z,40.90
2023-01-20T08:46:34.406Z,52.70
2023-01-20T08:49:01.546Z,62.30
2023-01-20T08:51:31.588Z,41.30
2023-01-20T08:53:59.255Z,58.20
2023-01-20T08:56:26.969Z,42.20
2023-01-20T08:58:56.287Z,63.90
2023-01-20T09:06:53.929Z,67.50
2023-01-20T09:09:22.638Z,99.90
2023-01-20T09:14:25.086Z,99.90
2023-01-20T09:16:52.567Z,90.00
2023-01-20T09:26:42.172Z,99.90
2023-01-20T09:29:15.401Z,1.00
2023-01-20T09:31:58.354Z,1.00
2023-01-20T09:34:29.356Z,1.00
2023-01-20T09:37:19.867Z,99.90
2023-01-20T09:40:06.169Z,1.00
2023-01-20T09:43:34.824Z,1.00
2023-01-20T09:46:14.093Z,1.00
2023-01-20T09:49:08.638Z,1.00
2023-01-20T09:52:42.708Z,1.00
2023-01-20T09:55:23.227Z,1.00
2023-01-20T09:58:08.087Z,1.00
2023-01-20T10:00:36.930Z,1.00
2023-01-20T10:03:36.945Z,1.00
2023-01-20T10:06:34.209Z,1.00
2023-01-20T10:09:17.280Z,1.00
2023-01-20T10:11:47.258Z,1.00
2023-01-20T10:14:38.742Z,99.90
2023-01-20T10:17:23.275Z,99.90
2023-01-20T10:20:01.685Z,69.70
2023-01-20T10:22:28.584Z,99.90
2023-01-20T10:25:09.044Z,1.00
2023-01-20T10:27:44.929Z,99.90
2023-01-20T10:30:15.308Z,1.00
2023-01-20T10:33:08.615Z,87.50
2023-01-20T10:35:57.413Z,1.00
2023-01-20T10:38:34.748Z,99.90
2023-01-20T10:41:36.675Z,1.00
2023-01-20T10:44:12.170Z,99.90
2023-01-20T10:46:49.140Z,99.90
2023-01-20T10:49:52.368Z,99.90
2023-01-20T10:52:43.605Z,99.90
2023-01-20T10:58:22.937Z,79.90
2023-01-20T11:00:50.360Z,99.90
2023-01-20T11:03:21.043Z,1.00
2023-01-20T11:05:49.927Z,99.90
2023-01-20T11:08:21.901Z,1.00
2023-01-20T11:10:54.161Z,1.00
2023-01-20T11:13:21.283Z,99.90
2023-01-20T11:15:56.340Z,1.00
2023-01-20T11:18:29.779Z,1.00
2023-01-20T11:21:12.579Z,99.90
2023-01-20T11:23:55.838Z,1.00
2023-01-20T11:26:36.128Z,99.90
2023-01-20T11:29:29.020Z,99.90
2023-01-20T11:31:56.999Z,99.90
2023-01-20T11:34:34.803Z,99.90
2023-01-20T11:37:37.344Z,99.90
2023-01-20T11:40:25.202Z,99.90
2023-01-20T11:42:54.711Z,99.90
2023-01-20T11:45:31.094Z,99.90
2023-01-20T11:48:19.241Z,99.90
2023-01-20T11:51:01.427Z,86.40
2023-01-20T11:53:33.807Z,99.90
2023-01-20T11:56:06.078Z,99.90
2023-01-20T11:58:54.619Z,99.90
2023-01-20T12:01:31.235Z,99.90
2023-01-20T12:07:01.691Z,99.90
2023-01-20T12:09:35.462Z,99.90
2023-01-20T12:12:07.374Z,99.90
2023-01-20T12:14:57.528Z,1.00
2023-01-20T12:17:32.448Z,1.00
2023-01-20T12:28:16.007Z,51.40
2023-01-20T12:30:49.009Z,1.00
2023-01-20T12:33:34.383Z,6.10
2023-01-20T12:36:44.926Z,99.90
2023-01-20T12:39:28.199Z,99.90
2023-01-20T12:42:12.342Z,1.00
2023-01-20T12:44:52.016Z,99.90
2023-01-20T12:47:49.354Z,99.90
2023-01-20T12:50:58.257Z,1.00
2023-01-20T12:53:48.453Z,99.90
2023-01-20T12:56:28.160Z,1.00
2023-01-20T12:59:17.370Z,1.00
2023-01-20T13:02:41.536Z,1.00
2023-01-20T13:05:35.203Z,1.00
2023-01-20T13:11:07.427Z,1.00
2023-01-20T13:14:06.819Z,1.00
2023-01-20T13:16:58.809Z,99.90
2023-01-20T13:19:41.425Z,1.00
2023-01-20T13:22:15.378Z,99.90
2023-01-20T13:24:46.570Z,1.00
2023-01-20T13:27:23.610Z,1.00
2023-01-20T13:29:50.479Z,91.40
2023-01-20T13:32:30.954Z,1.00
2023-01-20T13:34:58.833Z,99.90
2023-01-20T13:37:32.396Z,1.00
2023-01-20T13:40:00.455Z,99.90
2023-01-20T13:42:37.576Z,99.90
2023-01-20T13:45:14.049Z,99.90
2023-01-20T13:48:06.991Z,99.90
2023-01-20T13:50:39.803Z,99.90
2023-01-20T13:53:21.647Z,1.00
2023-01-20T13:55:48.554Z,1.00
2023-01-20T13:58:26.240Z,1.00
2023-01-20T14:00:57.421Z,1.00
2023-01-20T14:03:35.064Z,41.50
2023-01-20T14:06:07.579Z,99.90
2023-01-20T14:08:49.940Z,99.90
2023-01-20T14:16:27.374Z,1.00
2023-01-20T14:18:58.298Z,1.00
2023-01-20T14:21:28.885Z,99.90
2023-01-20T14:23:57.261Z,35.90
2023-01-20T14:26:30.748Z,99.90
2023-01-20T14:29:01.539Z,33.10
2023-01-20T14:31:40.443Z,1.00
2023-01-20T14:34:25.360Z,1.00
2023-01-20T14:36:52.996Z,1.00
2023-01-20T14:39:27.254Z,1.00
2023-01-20T14:41:57.945Z,1.00
2023-01-20T14:44:30.857Z,1.00
2023-01-20T14:47:01.014Z,1.00
2023-01-20T14:49:41.848Z,1.00
2023-01-20T14:52:13.703Z,1.00
2023-01-20T14:54:46.116Z,1.00
2023-01-20T14:57:18.155Z,1.00
2023-01-20T14:59:45.491Z,1.00
2023-01-20T15:02:30.099Z,99.90
2023-01-20T15:04:57.283Z,99.90
2023-01-20T15:07:25.228Z,99.90
2023-01-20T15:10:10.037Z,1.00
2023-01-20T15:12:40.572Z,1.00
2023-01-20T15:15:25.149Z,1.00
2023-01-20T15:18:17.070Z,1.00
2023-01-20T15:21:15.694Z,1.00
2023-01-20T15:23:45.779Z,1.00
2023-01-20T15:26:30.109Z,1.00
2023-01-20T15:28:58.381Z,1.00
2023-01-20T15:31:26.383Z,99.90
2023-01-20T15:33:53.542Z,99.90
2023-01-20T15:36:21.853Z,99.90
2023-01-20T15:38:49.630Z,99.90
2023-01-20T15:41:17.092Z,1.00
2023-01-20T15:43:45.500Z,1.00
2023-01-20T15:46:14.299Z,28.20
2023-01-20T15:48:41.926Z,1.00
2023-01-20T15:51:18.926Z,5.10
2023-01-20T15:53:46.995Z,1.00
2023-01-20T15:56:25.874Z,1.00
2023-01-20T15:58:53.728Z,1.00
2023-01-20T16:01:25.001Z,1.00
2023-01-20T16:03:57.154Z,1.00
2023-01-20T16:06:31.553Z,99.90
2023-01-20T16:09:15.209Z,1.00
2023-01-20T16:11:42.330Z,99.90
2023-01-20T16:14:09.293Z,99.90
2023-01-20T16:16:36.390Z,1.00
2023-01-20T16:19:04.755Z,99.90
2023-01-20T16:21:31.709Z,1.00
2023-01-20T16:23:58.959Z,1.00
2023-01-20T16:26:28.844Z,1.00
2023-01-20T16:28:57.901Z,99.90
2023-01-20T16:31:26.961Z,99.90
2023-01-20T16:33:54.886Z,1.00
2023-01-20T16:36:24.253Z,99.90
2023-01-20T16:38:52.216Z,1.00
2023-01-20T16:41:33.089Z,1.00
2023-01-20T16:44:00.114Z,1.00
2023-01-20T16:46:32.720Z,1.00
2023-01-20T16:49:01.819Z,99.90
2023-01-20T16:51:30.547Z,99.90
2023-01-20T16:53:59.070Z,99.90
2023-01-20T16:56:29.660Z,99.90
2023-01-20T16:59:01.417Z,99.90
2023-01-20T17:01:30.072Z,1.00
2023-01-20T17:04:02.427Z,1.00
2023-01-20T17:06:33.870Z,1.00
2023-01-20T17:09:04.076Z,1.00
2023-01-20T17:11:37.203Z,1.00
2023-01-20T17:14:07.580Z,35.30
2023-01-20T17:16:36.061Z,1.00
2023-01-20T17:19:04.096Z,1.00
2023-01-20T17:21:33.341Z,1.00
2023-01-20T17:24:04.344Z,21.30
2023-01-20T17:26:31.609Z,46.30
2023-01-20T17:29:04.689Z,62.80
2023-01-20T17:31:35.471Z,59.80
2023-01-20T17:34:04.661Z,90.90
2023-01-20T17:36:34.545Z,77.70
2023-01-20T17:39:03.807Z,68.60
2023-01-20T17:41:30.895Z,22.00
2023-01-20T17:43:57.850Z,35.00
2023-01-20T17:46:28.438Z,47.50
2023-01-20T17:49:04.746Z,69.70
2023-01-20T17:51:31.844Z,99.90
2023-01-20T17:54:02.547Z,99.90
2023-01-20T17:56:30.902Z,99.90
2023-01-20T17:58:57.897Z,99.90
2023-01-20T18:01:28.739Z,99.90
2023-01-20T18:03:58.929Z,99.90
2023-01-20T18:06:27.866Z,99.90
2023-01-20T18:08:58.828Z,99.90
2023-01-20T18:11:29.160Z,96.80
2023-01-20T18:13:58.279Z,95.30
2023-01-20T18:16:30.466Z,91.70
2023-01-20T18:19:00.821Z,92.60
2023-01-20T18:21:36.684Z,62.90
2023-01-20T18:24:08.404Z,48.90
2023-01-20T18:26:38.305Z,63.20
2023-01-20T18:29:13.201Z,64.60
2023-01-20T18:31:40.393Z,50.80
2023-01-20T18:34:11.558Z,37.70
2023-01-20T18:36:41.819Z,50.20
2023-01-20T18:39:18.636Z,45.40
2023-01-20T18:41:47.885Z,25.10
2023-01-20T18:44:15.593Z,25.00
2023-01-20T18:46:42.675Z,26.60
2023-01-20T18:49:13.732Z,26.30
2023-01-20T18:51:42.329Z,25.80
2023-01-20T18:54:21.186Z,13.40
2023-01-20T18:56:48.567Z,21.60
2023-01-20T18:59:15.607Z,53.30
2023-01-20T19:01:43.015Z,51.70
2023-01-20T19:04:12.453Z,47.70
2023-01-20T19:06:45.294Z,44.60
2023-01-20T19:09:12.926Z,25.50
2023-01-20T19:11:41.970Z,22.70
2023-01-20T19:14:13.352Z,37.00
2023-01-20T19:16:48.936Z,49.70
2023-01-20T19:19:17.768Z,51.30
2023-01-20T19:21:45.185Z,69.30
2023-01-20T19:24:19.715Z,57.70
2023-01-20T19:26:46.761Z,65.20
2023-01-20T19:29:17.046Z,52.30
2023-01-20T19:31:44.178Z,50.70
2023-01-20T19:34:11.463Z,53.20
2023-01-20T19:36:38.752Z,38.70
2023-01-20T19:39:05.981Z,27.50
2023-01-20T19:41:34.387Z,57.40
2023-01-20T19:44:03.635Z,46.50
2023-01-20T19:46:34.940Z,78.80
2023-01-20T19:49:02.576Z,98.10
2023-01-20T19:51:31.427Z,99.90
2023-01-20T19:54:01.005Z,99.90
2023-01-20T19:56:31.156Z,99.90
2023-01-20T19:59:00.756Z,99.90
2023-01-20T20:01:34.138Z,99.90
2023-01-20T20:04:07.530Z,99.90
2023-01-20T20:06:44.995Z,99.90
2023-01-20T20:09:17.668Z,99.90
2023-01-20T20:11:45.230Z,99.40
2023-01-20T20:14:15.007Z,93.50
2023-01-20T20:16:42.547Z,76.20
2023-01-20T20:19:14.656Z,83.60
2023-01-20T20:21:42.389Z,99.10
2023-01-20T20:24:12.964Z,99.90
2023-01-20T20:26:40.394Z,99.90
2023-01-20T20:29:08.811Z,94.40
2023-01-20T20:31:37.623Z,94.90
2023-01-20T20:34:08.443Z,92.10
2023-01-20T20:36:36.034Z,79.20
2023-01-20T20:39:04.999Z,70.90
2023-01-20T20:41:35.244Z,69.20
2023-01-20T20:44:03.455Z,62.10
2023-01-20T20:46:30.770Z,63.30
2023-01-20T20:48:59.789Z,98.80
2023-01-20T20:51:28.724Z,88.40
2023-01-20T20:53:57.888Z,72.80
2023-01-20T20:56:27.956Z,60.00
2023-01-20T20:59:01.922Z,68.60
2023-01-20T21:01:34.592Z,78.80
2023-01-20T21:04:03.345Z,78.00
2023-01-20T21:06:30.824Z,70.70
2023-01-20T21:08:58.781Z,82.40
2023-01-20T21:11:26.154Z,99.90
2023-01-20T21:13:53.750Z,99.90
2023-01-20T21:16:23.360Z,88.60
2023-01-20T21:18:52.699Z,93.90
2023-01-20T21:21:20.579Z,95.20
2023-01-20T21:23:55.450Z,79.00
2023-01-20T21:26:24.376Z,80.50
2023-01-20T21:28:51.587Z,83.10
2023-01-20T21:31:22.121Z,88.10
2023-01-20T21:33:54.079Z,99.90
2023-01-20T21:36:22.422Z,99.90
2023-01-20T21:38:50.567Z,99.90
2023-01-20T21:41:18.683Z,99.90
2023-01-20T21:44:06.064Z,99.90
2023-01-20T21:46:40.114Z,99.90
2023-01-20T21:49:27.163Z,99.90
2023-01-20T21:52:14.092Z,99.90
2023-01-20T21:54:41.716Z,99.90
2023-01-20T21:57:09.223Z,99.90
2023-01-20T21:59:36.936Z,99.90
2023-01-20T22:02:04.182Z,99.90
2023-01-20T22:04:32.107Z,99.90
2023-01-20T22:06:59.197Z,99.90
2023-01-20T22:09:26.178Z,93.90
2023-01-20T22:11:53.195Z,95.80
2023-01-20T22:14:20.196Z,91.30
2023-01-20T22:16:47.158Z,93.30
2023-01-20T22:19:14.797Z,88.20
2023-01-20T22:21:42.391Z,70.30
2023-01-20T22:24:10.555Z,73.20
2023-01-20T22:26:37.654Z,38.00
2023-01-20T22:29:04.651Z,70.80
2023-01-20T22:31:33.966Z,55.70
2023-01-20T22:34:04.451Z,59.40
2023-01-20T22:36:32.094Z,72.10
2023-01-20T22:38:59.711Z,91.10
2023-01-20T22:41:27.170Z,94.20
2023-01-20T22:43:55.321Z,99.90
2023-01-20T22:46:24.825Z,99.90
2023-01-20T22:48:51.968Z,98.90
2023-01-20T22:51:22.531Z,95.30
2023-01-20T22:53:50.342Z,95.30
2023-01-20T22:56:20.853Z,91.40
2023-01-20T22:58:48.082Z,87.30
2023-01-20T23:01:18.423Z,81.50
2023-01-20T23:03:46.091Z,77.40
2023-01-20T23:06:14.501Z,70.60
2023-01-20T23:08:41.966Z,60.40
2023-01-20T23:11:15.718Z,62.70
2023-01-20T23:13:43.152Z,69.20
2023-01-20T23:16:22.593Z,71.00
2023-01-20T23:18:51.602Z,58.20
2023-01-20T23:21:20.104Z,64.70
2023-01-20T23:23:54.063Z,56.50
2023-01-20T23:26:27.626Z,70.30
2023-01-20T23:28:56.130Z,60.70
2023-01-20T23:33:54.173Z,54.30
2023-01-20T23:36:24.187Z,47.90
2023-01-20T23:38:54.447Z,42.10
2023-01-20T23:41:21.783Z,35.70
2023-01-20T23:43:48.921Z,36.20
2023-01-20T23:46:15.892Z,36.10
2023-01-20T23:48:46.654Z,35.60
2023-01-20T23:51:14.176Z,66.70
2023-01-20T23:53:41.446Z,84.10
2023-01-20T23:56:14.191Z,65.50
2023-01-20T23:58:41.785Z,61.40
